createdAt,value
2023-01-29T00:01:15.877Z,99.90
2023-01-29T00:03:43.687Z,99.90
2023-01-29T00:06:12.835Z,99.90
2023-01-29T00:08:40.955Z,99.90
2023-01-29T00:11:09.788Z,99.90
2023-01-29T00:13:38.029Z,99.90
2023-01-29T00:16:06.272Z,99.90
2023-01-29T00:18:38.764Z,99.90
2023-01-29T00:21:10.264Z,99.90
2023-01-29T00:23:38.252Z,99.90
2023-01-29T00:26:06.458Z,99.90
2023-01-29T00:28:34.413Z,99.90
2023-01-29T00:31:08.799Z,99.90
2023-01-29T00:33:38.119Z,99.90
2023-01-29T00:36:07.142Z,99.90
2023-01-29T00:38:36.072Z,99.90
2023-01-29T00:41:30.599Z,99.90
2023-01-29T00:44:16.098Z,99.90
2023-01-29T00:46:44.045Z,99.90
2023-01-29T00:49:13.489Z,99.90
2023-01-29T00:51:41.647Z,99.90
2023-01-29T00:54:09.376Z,99.90
2023-01-29T00:56:38.176Z,99.90
2023-01-29T00:59:06.014Z,99.90
2023-01-29T01:01:51.633Z,99.90
2023-01-29T01:04:20.762Z,99.90
2023-01-29T01:06:48.540Z,99.90
2023-01-29T01:09:34.114Z,99.90
2023-01-29T01:12:02.578Z,99.90
2023-01-29T01:14:30.404Z,99.90
2023-01-29T01:16:58.578Z,99.90
2023-01-29T01:19:27.829Z,99.90
2023-01-29T01:21:55.756Z,99.90
2023-01-29T01:24:23.619Z,99.90
2023-01-29T01:26:51.821Z,99.90
2023-01-29T01:29:19.714Z,99.90
2023-01-29T01:31:47.551Z,99.90
2023-01-29T01:34:15.476Z,99.90
2023-01-29T01:36:44.626Z,99.90
2023-01-29T01:39:12.443Z,99.90
2023-01-29T01:41:40.283Z,99.90
2023-01-29T01:44:08.289Z,99.90
2023-01-29T01:46:38.345Z,99.90
2023-01-29T01:49:10.671Z,99.90
2023-01-29T01:51:41.826Z,99.90
2023-01-29T01:54:14.019Z,99.90
2023-01-29T01:56:48.379Z,99.90
2023-01-29T01:59:19.341Z,99.90
2023-01-29T02:01:50.231Z,99.90
2023-01-29T02:04:39.540Z,99.90
2023-01-29T02:07:28.374Z,99.90
2023-01-29T02:10:02.730Z,99.90
2023-01-29T02:12:31.188Z,99.90
2023-01-29T02:14:59.037Z,99.90
2023-01-29T02:17:27.077Z,99.90
2023-01-29T02:20:04.671Z,99.90
2023-01-29T02:23:09.385Z,99.90
2023-01-29T02:25:56.136Z,99.90
2023-01-29T02:28:38.750Z,99.90
2023-01-29T02:31:12.645Z,99.90
2023-01-29T02:33:49.073Z,99.90
2023-01-29T02:36:27.383Z,99.90
2023-01-29T02:39:02.782Z,99.90
2023-01-29T02:41:38.549Z,99.90
2023-01-29T02:44:14.793Z,99.90
2023-01-29T02:46:52.128Z,99.90
2023-01-29T02:49:26.994Z,99.90
2023-01-29T02:52:03.899Z,99.90
2023-01-29T02:54:39.597Z,99.90
2023-01-29T02:57:16.250Z,99.90
2023-01-29T02:59:50.114Z,99.90
2023-01-29T03:02:22.934Z,99.90
2023-01-29T03:04:56.546Z,99.90
2023-01-29T03:07:44.796Z,99.90
2023-01-29T03:10:24.267Z,99.90
2023-01-29T03:12:56.768Z,99.90
2023-01-29T03:15:30.728Z,99.90
2023-01-29T03:18:21.232Z,99.90
2023-01-29T03:20:54.754Z,99.90
2023-01-29T03:23:27.174Z,99.90
2023-01-29T03:26:17.791Z,99.90
2023-01-29T03:29:05.309Z,99.90
2023-01-29T03:31:54.718Z,99.90
2023-01-29T03:34:34.850Z,99.90
2023-01-29T03:37:09.236Z,99.90
2023-01-29T03:39:38.075Z,99.90
2023-01-29T03:42:14.638Z,99.90
2023-01-29T03:44:49.227Z,99.90
2023-01-29T03:47:40.512Z,99.90
2023-01-29T03:50:13.945Z,99.90
2023-01-29T03:52:50.296Z,99.90
2023-01-29T03:55:21.631Z,99.90
2023-01-29T03:57:57.015Z,99.90
2023-01-29T04:00:29.963Z,99.90
2023-01-29T04:03:09.043Z,99.90
2023-01-29T04:05:45.540Z,99.90
2023-01-29T04:08:26.996Z,99.90
2023-01-29T04:10:58.212Z,99.90
2023-01-29T04:13:30.045Z,99.90
2023-01-29T04:16:00.456Z,99.90
2023-01-29T04:18:51.227Z,99.90
2023-01-29T04:21:26.915Z,99.90
2023-01-29T04:23:55.468Z,99.90
2023-01-29T04:26:35.920Z,99.90
2023-01-29T04:29:19.395Z,99.90
2023-01-29T04:31:55.610Z,99.90
2023-01-29T04:34:29.401Z,99.90
2023-01-29T04:37:07.640Z,99.90
2023-01-29T04:39:44.623Z,99.90
2023-01-29T04:42:19.812Z,99.90
2023-01-29T04:44:55.433Z,99.90
2023-01-29T04:47:29.200Z,99.90
2023-01-29T04:50:09.804Z,99.90
2023-01-29T04:52:46.492Z,99.90
2023-01-29T04:55:21.247Z,99.90
2023-01-29T04:57:54.502Z,99.90
2023-01-29T05:00:28.679Z,99.90
2023-01-29T05:02:57.986Z,99.90
2023-01-29T05:05:28.876Z,99.90
2023-01-29T05:07:59.241Z,99.90
2023-01-29T05:10:27.876Z,99.90
2023-01-29T05:13:01.390Z,99.90
2023-01-29T05:15:34.263Z,99.90
2023-01-29T05:18:03.239Z,99.90
2023-01-29T05:20:35.429Z,99.90
2023-01-29T05:23:03.374Z,99.90
2023-01-29T05:25:34.007Z,99.90
2023-01-29T05:28:04.096Z,99.90
2023-01-29T05:30:32.671Z,99.90
2023-01-29T05:33:00.644Z,99.90
2023-01-29T05:35:28.649Z,99.90
2023-01-29T05:37:58.373Z,99.90
2023-01-29T05:40:26.483Z,99.90
2023-01-29T05:42:54.318Z,99.90
2023-01-29T05:45:22.188Z,99.90
2023-01-29T05:47:50.022Z,99.90
2023-01-29T05:50:18.485Z,99.90
2023-01-29T05:52:46.414Z,99.90
2023-01-29T05:55:15.546Z,99.90
2023-01-29T05:57:43.339Z,99.90
2023-01-29T06:00:13.178Z,99.90
2023-01-29T06:02:41.232Z,99.90
2023-01-29T06:05:10.058Z,99.90
2023-01-29T06:07:41.700Z,99.90
2023-01-29T06:10:12.666Z,99.90
2023-01-29T06:12:42.026Z,99.90
2023-01-29T06:15:10.736Z,99.90
2023-01-29T06:17:38.594Z,99.90
2023-01-29T06:20:08.934Z,99.90
2023-01-29T06:22:36.751Z,99.90
2023-01-29T06:25:05.223Z,99.90
2023-01-29T06:27:33.096Z,99.90
2023-01-29T06:30:02.413Z,99.90
2023-01-29T06:32:30.263Z,99.90
2023-01-29T06:34:58.161Z,99.90
2023-01-29T06:37:26.018Z,99.90
2023-01-29T06:39:53.828Z,99.90
2023-01-29T06:42:27.734Z,99.90
2023-01-29T06:44:55.625Z,99.90
2023-01-29T06:47:24.938Z,99.90
2023-01-29T06:49:52.753Z,99.90
2023-01-29T06:52:20.623Z,99.90
2023-01-29T06:54:48.462Z,99.90
2023-01-29T06:57:16.269Z,99.90
2023-01-29T06:59:44.090Z,99.90
2023-01-29T07:02:12.223Z,99.90
2023-01-29T07:04:41.867Z,99.90
2023-01-29T07:07:13.255Z,99.90
2023-01-29T07:09:42.198Z,99.90
2023-01-29T07:12:10.846Z,99.90
2023-01-29T07:14:38.661Z,99.90
2023-01-29T07:17:06.476Z,99.90
2023-01-29T07:19:34.352Z,99.90
2023-01-29T07:22:03.931Z,99.90
2023-01-29T07:24:31.788Z,99.90
2023-01-29T07:26:59.588Z,99.90
2023-01-29T07:29:27.436Z,99.90
2023-01-29T07:31:55.254Z,99.90
2023-01-29T07:34:23.064Z,99.90
2023-01-29T07:36:53.583Z,99.90
2023-01-29T07:39:22.655Z,99.90
2023-01-29T07:41:50.431Z,99.90
2023-01-29T07:44:18.418Z,99.90
2023-01-29T07:46:46.177Z,99.90
2023-01-29T07:49:14.102Z,99.90
2023-01-29T07:51:41.957Z,99.90
2023-01-29T07:54:09.730Z,99.90
2023-01-29T07:56:39.146Z,99.90
2023-01-29T07:59:06.922Z,99.90
2023-01-29T08:01:34.744Z,99.90
2023-01-29T08:04:02.538Z,99.90
2023-01-29T08:06:30.311Z,99.90
2023-01-29T08:08:59.647Z,99.90
2023-01-29T08:11:27.439Z,99.90
2023-01-29T08:13:57.250Z,99.90
2023-01-29T08:16:25.061Z,99.90
2023-01-29T08:18:52.846Z,99.90
2023-01-29T08:21:20.655Z,99.90
2023-01-29T08:23:48.521Z,99.90
2023-01-29T08:26:16.411Z,99.90
2023-01-29T08:28:44.242Z,99.90
2023-01-29T08:31:17.660Z,99.90
2023-01-29T08:33:45.463Z,99.90
2023-01-29T08:36:13.934Z,99.90
2023-01-29T08:38:41.839Z,99.90
2023-01-29T08:41:09.807Z,99.90
2023-01-29T08:43:38.532Z,99.90
2023-01-29T08:46:07.590Z,99.90
2023-01-29T08:48:36.837Z,99.90
2023-01-29T08:51:05.252Z,99.90
2023-01-29T08:53:33.413Z,99.90
2023-01-29T08:56:01.268Z,99.90
2023-01-29T08:58:29.055Z,99.90
2023-01-29T09:00:56.846Z,99.90
2023-01-29T09:03:24.646Z,99.90
2023-01-29T09:05:53.800Z,99.90
2023-01-29T09:08:21.596Z,99.90
2023-01-29T09:10:49.406Z,99.90
2023-01-29T09:13:17.282Z,99.90
2023-01-29T09:15:45.100Z,99.90
2023-01-29T09:18:12.926Z,99.90
2023-01-29T09:20:40.795Z,99.90
2023-01-29T09:23:11.315Z,99.90
2023-01-29T09:25:39.651Z,99.90
2023-01-29T09:28:07.406Z,99.90
2023-01-29T09:30:37.636Z,99.90
2023-01-29T09:33:06.576Z,99.90
2023-01-29T09:35:35.101Z,99.90
2023-01-29T09:38:02.870Z,99.90
2023-01-29T09:40:43.300Z,99.90
2023-01-29T09:43:16.396Z,99.90
2023-01-29T09:45:52.183Z,99.90
2023-01-29T09:48:23.006Z,99.90
2023-01-29T09:50:55.068Z,99.90
2023-01-29T09:53:28.683Z,99.90
2023-01-29T09:56:03.330Z,99.90
2023-01-29T09:58:34.474Z,99.30
2023-01-29T10:01:12.055Z,99.00
2023-01-29T10:03:56.148Z,98.70
2023-01-29T10:06:33.197Z,98.70
2023-01-29T10:09:29.370Z,99.00
2023-01-29T10:12:10.450Z,98.30
2023-01-29T10:14:48.173Z,98.50
2023-01-29T10:17:32.451Z,98.10
2023-01-29T10:20:29.831Z,97.30
2023-01-29T10:23:08.017Z,97.10
2023-01-29T10:25:40.623Z,96.30
2023-01-29T10:28:18.573Z,96.10
2023-01-29T10:30:50.261Z,95.50
2023-01-29T10:33:26.207Z,95.20
2023-01-29T10:35:59.055Z,94.50
2023-01-29T10:38:38.071Z,94.80
2023-01-29T10:41:20.603Z,94.90
2023-01-29T10:44:02.541Z,94.50
2023-01-29T10:46:43.749Z,93.90
2023-01-29T10:49:26.333Z,93.60
2023-01-29T10:52:09.292Z,93.20
2023-01-29T10:54:48.410Z,92.90
2023-01-29T10:57:24.273Z,92.30
2023-01-29T11:00:07.974Z,91.80
2023-01-29T11:02:44.582Z,92.00
2023-01-29T11:05:24.427Z,92.50
2023-01-29T11:08:02.860Z,92.50
2023-01-29T11:10:34.959Z,92.00
2023-01-29T11:13:05.226Z,92.30
2023-01-29T11:15:34.838Z,91.30
2023-01-29T11:18:04.911Z,91.60
2023-01-29T11:20:34.420Z,92.00
2023-01-29T11:23:02.198Z,92.50
2023-01-29T11:25:33.474Z,92.50
2023-01-29T11:28:02.933Z,92.40
2023-01-29T11:30:35.135Z,92.10
2023-01-29T11:33:18.157Z,92.20
2023-01-29T11:35:46.033Z,91.90
2023-01-29T11:38:22.216Z,91.60
2023-01-29T11:40:50.461Z,91.50
2023-01-29T11:43:24.437Z,91.40
2023-01-29T11:45:57.057Z,91.30
2023-01-29T11:48:32.813Z,91.30
2023-01-29T11:51:01.956Z,90.90
2023-01-29T11:53:38.684Z,90.30
2023-01-29T11:56:18.008Z,90.20
2023-01-29T11:58:47.645Z,90.30
2023-01-29T12:01:19.972Z,89.40
2023-01-29T12:03:53.786Z,89.10
2023-01-29T12:06:23.995Z,88.60
2023-01-29T12:08:57.930Z,87.90
2023-01-29T12:11:28.881Z,87.20
2023-01-29T12:13:58.173Z,86.70
2023-01-29T12:16:32.930Z,86.30
2023-01-29T12:19:10.107Z,86.20
2023-01-29T12:21:44.604Z,86.00
2023-01-29T12:24:24.243Z,85.70
2023-01-29T12:26:56.278Z,84.20
2023-01-29T12:29:37.566Z,85.30
2023-01-29T12:32:15.839Z,85.10
2023-01-29T12:34:48.026Z,84.20
2023-01-29T12:37:24.504Z,84.00
2023-01-29T12:39:53.645Z,83.80
2023-01-29T12:42:22.955Z,83.40
2023-01-29T12:44:54.118Z,84.70
2023-01-29T12:47:28.314Z,84.70
2023-01-29T12:49:58.708Z,84.80
2023-01-29T12:52:38.580Z,84.50
2023-01-29T12:55:14.336Z,84.00
2023-01-29T12:57:48.056Z,83.60
2023-01-29T13:00:20.225Z,84.10
2023-01-29T13:02:56.308Z,83.90
2023-01-29T13:05:29.231Z,84.60
2023-01-29T13:08:03.011Z,84.10
2023-01-29T13:10:37.142Z,84.30
2023-01-29T13:13:08.312Z,85.20
2023-01-29T13:15:37.686Z,84.20
2023-01-29T13:18:31.798Z,85.60
2023-01-29T13:21:00.835Z,85.90
2023-01-29T13:23:34.797Z,86.20
2023-01-29T13:26:02.823Z,87.70
2023-01-29T13:28:31.533Z,88.00
2023-01-29T13:31:23.149Z,88.70
2023-01-29T13:34:03.714Z,88.40
2023-01-29T13:36:32.655Z,89.50
2023-01-29T13:39:04.343Z,90.00
2023-01-29T13:41:34.571Z,90.20
2023-01-29T13:44:03.028Z,90.30
2023-01-29T13:46:31.371Z,90.80
2023-01-29T13:49:05.007Z,91.30
2023-01-29T13:51:37.496Z,91.70
2023-01-29T13:54:08.729Z,92.10
2023-01-29T13:56:59.996Z,91.70
2023-01-29T13:59:53.221Z,92.80
2023-01-29T14:02:26.835Z,93.00
2023-01-29T14:05:28.103Z,93.40
2023-01-29T14:07:59.246Z,93.70
2023-01-29T14:10:28.830Z,94.40
2023-01-29T14:13:37.210Z,94.60
2023-01-29T14:16:36.572Z,95.00
2023-01-29T14:19:06.709Z,95.40
2023-01-29T14:21:36.752Z,95.40
2023-01-29T14:24:17.960Z,95.30
2023-01-29T14:26:48.232Z,95.40
2023-01-29T14:29:33.825Z,95.80
2023-01-29T14:32:21.214Z,96.00
2023-01-29T14:34:51.284Z,96.30
2023-01-29T14:37:28.668Z,96.10
2023-01-29T14:40:00.452Z,96.70
2023-01-29T14:42:33.955Z,96.60
2023-01-29T14:45:08.159Z,96.90
2023-01-29T14:48:21.405Z,96.90
2023-01-29T14:50:51.846Z,97.50
2023-01-29T14:53:24.953Z,97.80
2023-01-29T14:55:59.754Z,98.00
2023-01-29T14:58:35.726Z,97.60
2023-01-29T15:01:07.746Z,97.90
2023-01-29T15:03:44.622Z,98.20
2023-01-29T15:06:19.732Z,98.80
2023-01-29T15:08:54.356Z,99.30
2023-01-29T15:11:37.240Z,99.50
2023-01-29T15:14:23.894Z,99.30
2023-01-29T15:17:05.702Z,99.40
2023-01-29T15:19:37.105Z,99.40
2023-01-29T15:22:10.578Z,99.30
2023-01-29T15:24:39.584Z,99.30
2023-01-29T15:27:14.121Z,99.90
2023-01-29T15:29:43.786Z,99.90
2023-01-29T15:32:29.113Z,99.90
2023-01-29T15:34:57.843Z,99.90
2023-01-29T15:37:31.649Z,99.90
2023-01-29T15:40:00.662Z,99.90
2023-01-29T15:42:42.354Z,99.90
2023-01-29T15:45:23.039Z,99.90
2023-01-29T15:47:51.379Z,99.90
2023-01-29T15:50:19.314Z,99.90
2023-01-29T15:52:50.259Z,99.90
2023-01-29T15:55:20.340Z,99.90
2023-01-29T15:57:49.972Z,99.90
2023-01-29T16:00:27.324Z,99.90
2023-01-29T16:02:55.764Z,99.90
2023-01-29T16:05:27.607Z,99.90
2023-01-29T16:07:56.868Z,99.90
2023-01-29T16:10:27.898Z,99.90
2023-01-29T16:12:58.026Z,99.90
2023-01-29T16:15:32.347Z,99.90
2023-01-29T16:18:01.154Z,99.90
2023-01-29T16:20:36.338Z,99.90
2023-01-29T16:23:04.092Z,99.90
2023-01-29T16:25:32.150Z,99.90
2023-01-29T16:28:05.336Z,99.90
2023-01-29T16:30:33.469Z,99.90
2023-01-29T16:33:05.423Z,99.90
2023-01-29T16:35:34.420Z,99.90
2023-01-29T16:38:07.123Z,99.90
2023-01-29T16:40:37.872Z,99.90
2023-01-29T16:43:48.036Z,99.90
2023-01-29T16:46:33.652Z,99.90
2023-01-29T16:49:01.863Z,99.90
2023-01-29T16:51:31.305Z,99.90
2023-01-29T16:54:01.308Z,99.90
2023-01-29T16:56:33.332Z,99.90
2023-01-29T16:59:05.408Z,99.90
2023-01-29T17:01:36.006Z,99.90
2023-01-29T17:04:08.796Z,99.90
2023-01-29T17:06:37.221Z,99.90
2023-01-29T17:09:06.211Z,99.90
2023-01-29T17:11:38.448Z,99.90
2023-01-29T17:14:09.516Z,99.90
2023-01-29T17:16:47.617Z,99.90
2023-01-29T17:19:20.795Z,99.90
2023-01-29T17:21:48.856Z,99.90
2023-01-29T17:24:16.642Z,99.90
2023-01-29T17:26:44.773Z,99.90
2023-01-29T17:29:18.466Z,99.90
2023-01-29T17:31:46.269Z,99.90
2023-01-29T17:34:15.785Z,99.90
2023-01-29T17:36:43.649Z,99.90
2023-01-29T17:39:19.684Z,99.90
2023-01-29T17:41:50.638Z,99.90
2023-01-29T17:44:20.001Z,99.90
2023-01-29T17:46:48.339Z,99.90
2023-01-29T17:49:23.468Z,99.90
2023-01-29T17:51:51.933Z,99.90
2023-01-29T17:54:20.255Z,99.90
2023-01-29T17:56:48.236Z,99.90
2023-01-29T17:59:17.381Z,99.90
2023-01-29T18:01:46.937Z,99.90
2023-01-29T18:04:15.150Z,99.90
2023-01-29T18:06:44.980Z,99.90
2023-01-29T18:09:14.823Z,99.90
2023-01-29T18:11:42.716Z,99.90
2023-01-29T18:14:13.918Z,99.90
2023-01-29T18:16:46.597Z,99.90
2023-01-29T18:19:20.629Z,99.90
2023-01-29T18:21:48.716Z,99.90
2023-01-29T18:24:16.823Z,99.90
2023-01-29T18:26:44.776Z,99.90
2023-01-29T18:29:12.682Z,99.90
2023-01-29T18:31:40.704Z,99.90
2023-01-29T18:34:08.626Z,99.90
2023-01-29T18:36:38.323Z,99.90
2023-01-29T18:39:06.269Z,99.90
2023-01-29T18:41:34.853Z,99.90
2023-01-29T18:44:02.680Z,99.90
2023-01-29T18:46:30.569Z,99.90
2023-01-29T18:48:58.427Z,99.90
2023-01-29T18:51:26.240Z,99.90
2023-01-29T18:53:55.495Z,99.90
2023-01-29T18:56:23.388Z,99.90
2023-01-29T18:58:55.905Z,99.90
2023-01-29T19:01:24.563Z,99.90
2023-01-29T19:03:52.489Z,99.90
2023-01-29T19:06:20.354Z,99.90
2023-01-29T19:08:48.285Z,99.90
2023-01-29T19:11:17.504Z,99.90
2023-01-29T19:13:46.087Z,99.90
2023-01-29T19:16:14.211Z,99.90
2023-01-29T19:18:42.475Z,99.90
2023-01-29T19:21:12.975Z,99.90
2023-01-29T19:23:41.042Z,99.90
2023-01-29T19:26:09.429Z,99.90
2023-01-29T19:28:38.651Z,99.90
2023-01-29T19:31:06.688Z,99.90
2023-01-29T19:33:34.776Z,99.90
2023-01-29T19:36:03.204Z,99.90
2023-01-29T19:38:33.510Z,99.90
2023-01-29T19:41:01.704Z,99.90
2023-01-29T19:43:31.526Z,99.90
2023-01-29T19:46:02.015Z,99.90
2023-01-29T19:48:30.196Z,99.90
2023-01-29T19:50:59.846Z,99.90
2023-01-29T19:53:29.718Z,99.90
2023-01-29T19:56:02.737Z,99.90
2023-01-29T19:58:31.028Z,99.90
2023-01-29T20:01:02.440Z,99.90
2023-01-29T20:03:30.848Z,99.90
2023-01-29T20:06:03.666Z,99.90
2023-01-29T20:08:32.397Z,99.90
2023-01-29T20:11:01.162Z,99.90
2023-01-29T20:13:29.339Z,99.90
2023-01-29T20:15:57.194Z,99.90
2023-01-29T20:18:26.368Z,99.90
2023-01-29T20:20:54.213Z,99.90
2023-01-29T20:23:36.607Z,99.90
2023-01-29T20:26:05.897Z,99.90
2023-01-29T20:28:34.498Z,99.90
2023-01-29T20:31:03.025Z,99.90
2023-01-29T20:33:33.585Z,99.90
2023-01-29T20:36:03.069Z,99.90
2023-01-29T20:38:31.776Z,99.90
2023-01-29T20:41:05.055Z,99.90
2023-01-29T20:43:32.977Z,99.90
2023-01-29T20:46:01.051Z,99.90
2023-01-29T20:48:29.179Z,99.90
2023-01-29T20:51:03.701Z,99.90
2023-01-29T20:53:31.732Z,99.90
2023-01-29T20:55:59.736Z,99.90
2023-01-29T20:58:27.960Z,99.90
2023-01-29T21:00:55.994Z,99.90
2023-01-29T21:03:23.904Z,99.90
2023-01-29T21:05:52.320Z,99.90
2023-01-29T21:08:21.553Z,99.90
2023-01-29T21:10:50.732Z,99.90
2023-01-29T21:13:18.743Z,99.90
2023-01-29T21:15:46.819Z,99.90
2023-01-29T21:18:14.694Z,99.90
2023-01-29T21:20:42.537Z,99.90
2023-01-29T21:23:10.624Z,99.90
2023-01-29T21:25:41.142Z,99.90
2023-01-29T21:28:09.523Z,99.90
2023-01-29T21:30:37.395Z,99.90
2023-01-29T21:33:05.412Z,99.90
2023-01-29T21:35:33.566Z,99.90
2023-01-29T21:38:01.392Z,99.90
2023-01-29T21:40:30.504Z,99.90
2023-01-29T21:43:15.367Z,99.90
2023-01-29T21:45:44.022Z,99.90
2023-01-29T21:48:12.609Z,99.90
2023-01-29T21:50:40.511Z,99.90
2023-01-29T21:53:08.354Z,99.90
2023-01-29T21:55:36.215Z,99.90
2023-01-29T21:58:05.395Z,99.90
2023-01-29T22:00:33.428Z,99.90
2023-01-29T22:03:01.323Z,99.90
2023-01-29T22:05:30.053Z,99.90
2023-01-29T22:07:57.940Z,99.90
2023-01-29T22:10:26.007Z,99.90
2023-01-29T22:12:54.166Z,99.90
2023-01-29T22:15:24.003Z,99.90
2023-01-29T22:17:52.027Z,99.90
2023-01-29T22:20:20.513Z,99.90
2023-01-29T22:22:48.615Z,99.90
2023-01-29T22:25:20.003Z,99.90
2023-01-29T22:27:48.032Z,99.90
2023-01-29T22:30:16.698Z,99.90
2023-01-29T22:32:45.941Z,99.90
2023-01-29T22:35:13.772Z,99.90
2023-01-29T22:37:41.647Z,99.90
2023-01-29T22:40:10.753Z,99.90
2023-01-29T22:42:38.675Z,99.90
2023-01-29T22:45:07.547Z,99.90
2023-01-29T22:47:35.384Z,99.90
2023-01-29T22:50:04.931Z,99.90
2023-01-29T22:52:38.395Z,99.90
2023-01-29T22:55:08.795Z,99.90
2023-01-29T22:57:37.005Z,99.90
2023-01-29T23:00:06.553Z,99.90
2023-01-29T23:02:34.383Z,99.90
2023-01-29T23:05:02.205Z,99.90
2023-01-29T23:07:31.425Z,99.90
2023-01-29T23:09:59.330Z,99.90
2023-01-29T23:12:27.357Z,99.90
2023-01-29T23:14:55.189Z,99.90
2023-01-29T23:17:23.144Z,99.90
2023-01-29T23:19:51.010Z,99.90
2023-01-29T23:22:18.877Z,99.90
2023-01-29T23:24:47.981Z,99.90
2023-01-29T23:27:15.102Z,99.90
2023-01-29T23:29:43.202Z,99.90
2023-01-29T23:32:11.277Z,99.90
2023-01-29T23:34:39.075Z,99.90
2023-01-29T23:37:06.988Z,99.90
2023-01-29T23:39:34.887Z,99.90
2023-01-29T23:42:04.121Z,99.90
2023-01-29T23:44:32.008Z,99.90
2023-01-29T23:47:00.198Z,99.90
2023-01-29T23:49:28.461Z,99.90
2023-01-29T23:51:56.291Z,99.90
2023-01-29T23:54:24.565Z,99.90
2023-01-29T23:56:52.503Z,99.90
2023-01-29T23:59:21.891Z,99.90
